Irishtown, Illinois
Current Conditions -  °F | °C
As of 2:15 PM on Thursday 18 Dec 2014 (Local Time) from KENL Reporting Station
Overcast Overcast  
Wind Chill: 33°   Ceiling: 4600
Heat Index: 33°   Visibility: 10mi
Dew Point: 24°   Wind: 3mph
Humidity: 69%   Direction: 360°N
Pressure: 30.23"   Gusts: NA
Location:  38.7527°N, 89.3215°W
Report Text: KENL 182015Z AUTO 36003KT 10SM OVC046 01/M04 A3023 RMK AO2 T00071045
Loading
Personal Weather Stations






























Interactive Weather Map New forecast layout! Learn more

10-Day Weather Forecast

Advertisements
Track Severe Weather on mobile